Main page
METAR-TAF:

METAR-TAF

Airports :

Ilam Airport

Ilam, Iran

latitude: 33-35-09N, longitude: 046-24-20E, elevation: 1334 m

Current weather observation

The report was made 22 minutes ago, at 06:00 UTC
Wind 4 kt from the East/Southeast
Temperature 19°C
Humidity 56%
Pressure 1026 hPa
Visibility 10 km or more
Few clouds at a height of 3500 ft

METAR: OICI 230600Z 12004KT 9999 FEW035 19/10 Q1026 A3030

Time: 09:52 (06:22 UTC)

Forecast

The report was made 52 minutes ago, at 05:30 UTC
Forecast valid from 23 at 06 UTC to 24 at 12 UTC
Wind 8 kt from the East
Visibility: 8000 m

TAF: OICI 230530Z 2306/2412 08004MPS 8000 NSC

Weather observations and forecasts of more than 4000 airports (METAR and TAF reports).

The available stations are represented by yellow and red dots on the map.

Hover mouse over dot to see the name of the station.

Then click to see weather observations and forecasts.

To change the map : click on the green buttons with a black cross to zoom in, on the green button with a dash to zoom out, or on the green arrows for adjacent maps.


METAR-TAF: